createdAt,value
2023-02-20T00:00:31.357Z,102085.03
2023-02-20T00:02:58.250Z,102075.03
2023-02-20T00:05:25.329Z,102067.44
2023-02-20T00:07:51.828Z,102039.00
2023-02-20T00:10:18.799Z,102046.28
2023-02-20T00:12:45.382Z,102058.44
2023-02-20T00:15:14.974Z,102069.13
2023-02-20T00:17:44.468Z,102071.81
2023-02-20T00:20:11.516Z,102059.34
2023-02-20T00:22:37.935Z,102061.03
2023-02-20T00:25:04.451Z,102051.66
2023-02-20T00:27:30.828Z,102061.75
2023-02-20T00:29:57.218Z,102061.34
2023-02-20T00:32:23.721Z,102050.63
2023-02-20T00:34:50.907Z,102042.72
2023-02-20T00:37:17.565Z,102021.34
2023-02-20T00:39:44.009Z,102025.91
2023-02-20T00:42:10.492Z,102032.78
2023-02-20T00:44:36.902Z,102036.19
2023-02-20T00:47:03.877Z,102038.69
2023-02-20T00:49:30.354Z,102016.97
2023-02-20T00:51:56.751Z,102004.09
2023-02-20T00:54:23.141Z,102017.91
2023-02-20T00:56:49.525Z,102005.56
2023-02-20T00:59:16.068Z,102020.09
2023-02-20T01:01:42.630Z,102015.44
2023-02-20T01:04:09.114Z,102017.59
2023-02-20T01:06:35.589Z,102011.78
2023-02-20T01:09:02.019Z,102011.19
2023-02-20T01:11:28.432Z,102003.47
2023-02-20T01:13:54.887Z,101993.59
2023-02-20T01:16:21.449Z,101984.16
2023-02-20T01:18:51.936Z,101986.03
2023-02-20T01:21:18.843Z,101972.28
2023-02-20T01:23:45.281Z,101985.91
2023-02-20T01:26:11.945Z,101980.88
2023-02-20T01:28:38.521Z,101977.34
2023-02-20T01:31:05.149Z,101972.06
2023-02-20T01:33:31.567Z,101961.06
2023-02-20T01:35:57.977Z,101946.63
2023-02-20T01:38:24.411Z,101964.28
2023-02-20T01:40:50.853Z,101966.03
2023-02-20T01:43:17.631Z,101966.66
2023-02-20T01:45:44.282Z,101957.38
2023-02-20T01:48:25.860Z,101942.53
2023-02-20T01:50:58.317Z,101930.47
2023-02-20T01:53:29.042Z,101912.47
2023-02-20T01:56:08.986Z,101895.50
2023-02-20T01:58:41.450Z,101908.34
2023-02-20T02:01:08.081Z,101906.53
2023-02-20T02:03:39.508Z,101920.28
2023-02-20T02:06:08.152Z,101887.13
2023-02-20T02:08:39.610Z,101897.75
2023-02-20T02:11:16.728Z,101892.06
2023-02-20T02:13:44.409Z,101896.78
2023-02-20T02:16:29.237Z,101898.16
2023-02-20T02:19:36.818Z,101892.25
2023-02-20T02:22:35.425Z,101886.09
2023-02-20T02:25:15.987Z,101886.94
2023-02-20T02:28:13.462Z,101880.91
2023-02-20T02:30:48.791Z,101865.84
2023-02-20T02:33:21.256Z,101870.22
2023-02-20T02:36:01.096Z,101869.06
2023-02-20T02:38:42.389Z,101852.50
2023-02-20T02:41:13.726Z,101834.47
2023-02-20T02:44:01.797Z,101841.50
2023-02-20T02:46:49.416Z,101833.81
2023-02-20T02:49:28.064Z,101828.50
2023-02-20T02:51:56.359Z,101817.63
2023-02-20T02:54:28.453Z,101811.41
2023-02-20T02:57:20.278Z,101810.50
2023-02-20T02:59:50.293Z,101824.06
2023-02-20T03:02:20.428Z,101802.44
2023-02-20T03:04:51.951Z,101819.53
2023-02-20T03:07:22.431Z,101822.72
2023-02-20T03:09:54.697Z,101820.41
2023-02-20T03:12:22.685Z,101814.47
2023-02-20T03:15:30.929Z,101813.44
2023-02-20T03:18:29.481Z,101814.25
2023-02-20T03:21:00.367Z,101799.22
2023-02-20T03:23:38.479Z,101783.19
2023-02-20T03:26:18.811Z,101796.97
2023-02-20T03:28:57.500Z,101823.31
2023-02-20T03:31:34.821Z,101812.38
2023-02-20T03:34:19.831Z,101819.06
2023-02-20T03:37:09.894Z,101800.25
2023-02-20T03:40:03.698Z,101818.59
2023-02-20T03:42:54.274Z,101811.28
2023-02-20T03:45:23.322Z,101788.31
2023-02-20T03:47:54.662Z,101790.09
2023-02-20T03:50:23.619Z,101791.09
2023-02-20T03:52:50.520Z,101779.34
2023-02-20T03:55:16.964Z,101792.41
2023-02-20T03:57:50.085Z,101779.28
2023-02-20T04:00:20.504Z,101780.09
2023-02-20T04:02:50.487Z,101792.28
2023-02-20T04:05:22.675Z,101792.41
2023-02-20T04:08:13.036Z,101768.28
2023-02-20T04:10:50.914Z,101778.00
2023-02-20T04:13:18.526Z,101781.44
2023-02-20T04:15:46.550Z,101758.56
2023-02-20T04:18:19.360Z,101756.09
2023-02-20T04:20:49.943Z,101764.84
2023-02-20T04:23:19.468Z,101763.53
2023-02-20T04:25:51.622Z,101756.09
2023-02-20T04:28:18.915Z,101748.66
2023-02-20T04:30:45.466Z,101743.09
2023-02-20T04:33:14.385Z,101744.28
2023-02-20T04:35:41.162Z,101747.56
2023-02-20T04:38:08.917Z,101753.16
2023-02-20T04:40:35.692Z,101756.69
2023-02-20T04:43:02.189Z,101730.41
2023-02-20T04:45:28.608Z,101748.56
2023-02-20T04:47:55.588Z,101739.81
2023-02-20T04:50:33.526Z,101750.81
2023-02-20T04:53:00.835Z,101756.41
2023-02-20T04:55:27.701Z,101706.75
2023-02-20T04:57:56.373Z,101746.34
2023-02-20T05:00:23.460Z,101726.00
2023-02-20T05:02:49.917Z,101719.25
2023-02-20T05:05:25.531Z,101734.66
2023-02-20T05:08:01.227Z,101734.53
2023-02-20T05:10:28.968Z,101742.94
2023-02-20T05:12:56.418Z,101735.56
2023-02-20T05:15:23.295Z,101722.84
2023-02-20T05:17:49.854Z,101709.16
2023-02-20T05:20:16.606Z,101722.13
2023-02-20T05:22:44.784Z,101730.16
2023-02-20T05:25:12.084Z,101713.97
2023-02-20T05:27:38.713Z,101737.47
2023-02-20T05:30:07.132Z,101732.66
2023-02-20T05:32:33.565Z,101742.84
2023-02-20T05:35:00.080Z,101708.88
2023-02-20T05:37:27.837Z,101728.66
2023-02-20T05:39:54.388Z,101722.38
2023-02-20T05:42:24.183Z,101731.38
2023-02-20T05:44:50.650Z,101729.47
2023-02-20T05:47:37.231Z,101568.28
2023-02-20T05:50:04.626Z,101636.47
2023-02-20T05:52:31.169Z,101626.88
2023-02-20T05:54:57.574Z,101737.41
2023-02-20T05:57:23.978Z,101733.84
2023-02-20T05:59:50.399Z,101736.81
2023-02-20T06:02:16.802Z,101736.94
2023-02-20T06:04:43.247Z,101733.03
2023-02-20T06:07:12.864Z,101728.66
2023-02-20T06:09:43.846Z,101743.22
2023-02-20T06:12:10.282Z,101736.00
2023-02-20T06:14:37.117Z,101730.81
2023-02-20T06:17:03.698Z,101741.06
2023-02-20T06:19:30.284Z,101729.97
2023-02-20T06:21:58.784Z,101730.81
2023-02-20T06:24:26.113Z,101712.44
2023-02-20T06:26:52.867Z,101692.50
2023-02-20T06:29:19.737Z,101718.63
2023-02-20T06:31:46.758Z,101720.88
2023-02-20T06:34:14.258Z,101717.53
2023-02-20T06:36:41.474Z,101657.75
2023-02-20T06:39:09.668Z,101687.75
2023-02-20T06:41:36.596Z,101715.47
2023-02-20T06:44:03.170Z,101707.72
2023-02-20T06:46:29.843Z,101681.38
2023-02-20T06:48:58.556Z,101713.44
2023-02-20T06:51:28.776Z,101715.69
2023-02-20T06:53:55.250Z,101699.38
2023-02-20T06:56:25.893Z,101710.25
2023-02-20T06:58:53.935Z,101705.63
2023-02-20T07:01:22.885Z,101723.47
2023-02-20T07:03:50.365Z,101720.88
2023-02-20T07:06:21.965Z,101695.72
2023-02-20T07:08:48.584Z,101710.34
2023-02-20T07:11:18.159Z,101714.03
2023-02-20T07:13:44.703Z,101715.34
2023-02-20T07:16:11.301Z,101716.63
2023-02-20T07:18:38.300Z,101726.91
2023-02-20T07:21:04.936Z,101725.84
2023-02-20T07:23:31.474Z,101731.06
2023-02-20T07:25:58.093Z,101727.63
2023-02-20T07:28:24.762Z,101709.78
2023-02-20T07:30:51.184Z,101735.53
2023-02-20T07:33:18.657Z,101724.91
2023-02-20T07:36:01.698Z,101694.03
2023-02-20T07:38:28.168Z,101727.81
2023-02-20T07:40:54.610Z,101717.66
2023-02-20T07:43:21.145Z,101720.03
2023-02-20T07:45:47.652Z,101720.97
2023-02-20T07:48:14.057Z,101712.56
2023-02-20T07:50:43.467Z,101639.31
2023-02-20T07:53:15.386Z,101704.84
2023-02-20T07:55:42.012Z,101708.13
2023-02-20T07:58:08.781Z,101705.66
2023-02-20T08:00:35.894Z,101697.84
2023-02-20T08:03:02.890Z,101712.16
2023-02-20T08:05:40.204Z,101704.72
2023-02-20T08:08:06.752Z,101701.25
2023-02-20T08:10:33.582Z,101705.38
2023-02-20T08:12:59.990Z,101704.31
2023-02-20T08:15:56.541Z,101639.69
2023-02-20T08:19:10.008Z,101601.44
2023-02-20T08:21:36.594Z,101643.94
2023-02-20T08:24:03.037Z,101682.00
2023-02-20T08:26:29.518Z,101681.47
2023-02-20T08:28:55.980Z,101715.84
2023-02-20T08:31:31.670Z,101679.53
2023-02-20T08:33:59.141Z,101703.31
2023-02-20T08:36:25.687Z,101694.09
2023-02-20T08:38:52.231Z,101635.63
2023-02-20T08:41:19.012Z,101594.28
2023-02-20T08:43:45.604Z,101587.53
2023-02-20T08:46:13.044Z,101698.53
2023-02-20T08:48:39.688Z,101660.28
2023-02-20T08:51:06.869Z,101669.59
2023-02-20T08:53:34.061Z,101664.66
2023-02-20T08:56:00.586Z,101657.53
2023-02-20T08:58:27.194Z,101680.66
2023-02-20T09:00:54.688Z,101671.75
2023-02-20T09:03:24.094Z,101647.94
2023-02-20T09:05:50.621Z,101642.03
2023-02-20T09:08:17.113Z,101658.31
2023-02-20T09:10:43.999Z,101665.72
2023-02-20T09:13:11.289Z,101651.88
2023-02-20T09:15:40.386Z,101662.88
2023-02-20T09:18:10.021Z,101651.69
2023-02-20T09:20:37.651Z,101649.63
2023-02-20T09:23:04.637Z,101633.53
2023-02-20T09:25:31.170Z,101655.16
2023-02-20T09:27:57.842Z,101647.50
2023-02-20T09:30:25.358Z,101652.66
2023-02-20T09:32:52.166Z,101640.13
2023-02-20T09:35:29.536Z,101652.66
2023-02-20T09:37:56.073Z,101607.84
2023-02-20T09:40:24.375Z,101653.53
2023-02-20T09:43:06.586Z,101646.00
2023-02-20T09:45:36.640Z,101662.34
2023-02-20T09:48:06.116Z,101638.88
2023-02-20T09:50:50.479Z,101667.31
2023-02-20T09:53:40.758Z,101639.56
2023-02-20T09:56:13.350Z,101640.78
2023-02-20T09:59:06.012Z,101667.19
2023-02-20T10:01:37.307Z,101671.41
2023-02-20T10:04:13.807Z,101639.06
2023-02-20T10:06:40.241Z,101672.53
2023-02-20T10:09:12.640Z,101681.03
2023-02-20T10:12:00.894Z,101680.78
2023-02-20T10:14:49.455Z,101695.47
2023-02-20T10:17:37.810Z,101690.81
2023-02-20T10:20:25.206Z,101695.63
2023-02-20T10:23:14.277Z,101681.03
2023-02-20T10:25:46.190Z,101674.81
2023-02-20T10:28:16.469Z,101693.97
2023-02-20T10:30:49.201Z,101693.97
2023-02-20T10:33:18.642Z,101707.44
2023-02-20T10:36:12.363Z,101696.69
2023-02-20T10:38:50.600Z,101674.00
2023-02-20T10:41:32.095Z,101700.00
2023-02-20T10:44:21.482Z,101688.03
2023-02-20T10:47:43.295Z,101658.09
2023-02-20T10:53:23.266Z,101682.75
2023-02-20T10:57:12.617Z,101580.41
2023-02-20T10:59:55.325Z,101628.84
2023-02-20T11:02:26.118Z,101653.63
2023-02-20T11:04:57.677Z,101601.03
2023-02-20T11:07:24.654Z,101576.16
2023-02-20T11:09:51.213Z,101629.41
2023-02-20T11:12:43.181Z,101570.19
2023-02-20T11:15:13.481Z,101641.56
2023-02-20T11:17:41.734Z,101614.31
2023-02-20T11:20:37.775Z,101682.91
2023-02-20T11:23:04.817Z,101588.16
2023-02-20T11:25:35.703Z,101565.91
2023-02-20T11:28:26.184Z,101656.13
2023-02-20T11:31:22.226Z,101605.25
2023-02-20T11:33:50.594Z,101575.28
2023-02-20T11:37:07.423Z,101653.94
2023-02-20T11:39:35.713Z,101589.31
2023-02-20T11:42:20.679Z,101615.03
2023-02-20T11:45:12.809Z,101635.66
2023-02-20T11:47:39.513Z,101552.19
2023-02-20T11:50:20.732Z,101627.13
2023-02-20T11:53:07.373Z,101610.22
2023-02-20T11:55:44.341Z,101647.47
2023-02-20T12:00:50.695Z,101630.41
2023-02-20T12:09:01.917Z,101649.63
2023-02-20T12:11:29.217Z,101666.94
2023-02-20T12:16:57.479Z,101627.25
2023-02-20T12:19:52.336Z,101625.06
2023-02-20T12:22:30.431Z,101621.72
2023-02-20T12:25:09.369Z,101650.59
2023-02-20T12:31:09.393Z,101654.53
2023-02-20T12:34:40.204Z,101641.84
2023-02-20T12:37:32.391Z,101652.28
2023-02-20T12:40:12.903Z,101631.81
2023-02-20T12:43:24.970Z,101633.44
2023-02-20T12:46:10.928Z,101605.94
2023-02-20T12:49:18.246Z,101629.81
2023-02-20T13:02:52.892Z,101555.84
2023-02-20T13:05:45.289Z,101461.44
2023-02-20T13:11:20.846Z,101584.13
2023-02-20T13:18:05.635Z,101593.72
2023-02-20T13:20:39.301Z,101601.72
2023-02-20T13:23:27.907Z,101620.09
2023-02-20T13:35:25.667Z,101601.47
2023-02-20T13:41:11.761Z,101530.25
2023-02-20T13:46:59.064Z,101581.97
2023-02-20T13:49:50.395Z,101579.81
2023-02-20T13:52:31.362Z,101571.69
2023-02-20T13:55:04.405Z,101560.72
2023-02-20T13:57:53.568Z,101527.03
2023-02-20T14:01:03.451Z,101575.56
2023-02-20T14:06:19.315Z,101553.19
2023-02-20T14:13:39.015Z,101568.72
2023-02-20T14:19:49.908Z,101524.22
2023-02-20T14:22:32.468Z,101529.72
2023-02-20T14:26:00.024Z,101528.75
2023-02-20T14:28:30.882Z,101524.78
2023-02-20T14:31:38.307Z,101512.69
2023-02-20T14:44:21.538Z,101486.06
2023-02-20T14:47:54.886Z,101523.25
2023-02-20T14:50:46.903Z,101499.25
2023-02-20T14:53:20.680Z,101491.25
2023-02-20T14:58:36.106Z,101477.00
2023-02-20T15:01:17.645Z,101512.97
2023-02-20T15:04:01.096Z,101518.44
2023-02-20T15:06:29.963Z,101522.84
2023-02-20T15:09:01.014Z,101463.66
2023-02-20T15:11:30.376Z,101530.69
2023-02-20T15:13:58.161Z,101526.41
2023-02-20T15:16:28.109Z,101522.56
2023-02-20T15:18:55.239Z,101515.84
2023-02-20T15:21:40.621Z,101512.25
2023-02-20T15:24:25.588Z,101522.00
2023-02-20T15:26:52.910Z,101520.94
2023-02-20T15:29:28.562Z,101518.72
2023-02-20T15:31:56.325Z,101517.63
2023-02-20T15:34:27.020Z,101517.75
2023-02-20T15:36:56.202Z,101526.69
2023-02-20T15:39:22.804Z,101520.91
2023-02-20T15:41:49.763Z,101542.63
2023-02-20T15:44:17.598Z,101514.06
2023-02-20T15:46:44.134Z,101539.22
2023-02-20T15:49:16.055Z,101535.75
2023-02-20T15:51:47.457Z,101540.44
2023-02-20T15:54:17.192Z,101526.84
2023-02-20T15:56:44.801Z,101525.59
2023-02-20T15:59:17.463Z,101524.63
2023-02-20T16:01:44.777Z,101493.03
2023-02-20T16:04:15.948Z,101539.06
2023-02-20T16:06:43.491Z,101475.59
2023-02-20T16:09:12.189Z,101522.13
2023-02-20T16:11:43.839Z,101505.75
2023-02-20T16:14:14.575Z,101555.63
2023-02-20T16:16:44.014Z,101530.22
2023-02-20T16:19:19.252Z,101526.63
2023-02-20T16:21:58.372Z,101519.50
2023-02-20T16:24:28.375Z,101508.34
2023-02-20T16:27:15.074Z,101488.44
2023-02-20T16:29:53.005Z,101487.19
2023-02-20T16:32:27.822Z,101488.97
2023-02-20T16:34:56.561Z,101458.47
2023-02-20T16:37:25.637Z,101552.34
2023-02-20T16:39:55.637Z,101522.34
2023-02-20T16:42:29.296Z,101569.22
2023-02-20T16:44:58.631Z,101525.56
2023-02-20T16:47:28.355Z,101534.59
2023-02-20T16:49:55.157Z,101518.94
2023-02-20T16:52:23.567Z,101547.41
2023-02-20T16:54:50.409Z,101545.91
2023-02-20T16:57:18.319Z,101547.97
2023-02-20T16:59:45.052Z,101536.28
2023-02-20T17:02:17.057Z,101547.81
2023-02-20T17:04:43.901Z,101549.47
2023-02-20T17:07:10.697Z,101552.34
2023-02-20T17:09:43.867Z,101555.53
2023-02-20T17:12:14.594Z,101508.78
2023-02-20T17:14:42.578Z,101515.78
2023-02-20T17:17:09.155Z,101542.19
2023-02-20T17:19:40.360Z,101564.72
2023-02-20T17:22:07.454Z,101571.59
2023-02-20T17:24:35.110Z,101557.72
2023-02-20T17:27:02.456Z,101544.78
2023-02-20T17:29:29.155Z,101574.47
2023-02-20T17:31:55.677Z,101537.63
2023-02-20T17:34:22.483Z,101577.50
2023-02-20T17:36:49.593Z,101587.00
2023-02-20T17:39:21.048Z,101554.16
2023-02-20T17:41:52.500Z,101571.75
2023-02-20T17:44:21.961Z,101552.63
2023-02-20T17:46:51.309Z,101545.19
2023-02-20T17:49:19.388Z,101557.59
2023-02-20T17:51:47.063Z,101561.03
2023-02-20T17:54:14.653Z,101548.66
2023-02-20T17:56:46.515Z,101567.09
2023-02-20T17:59:12.955Z,101550.72
2023-02-20T18:01:39.719Z,101557.31
2023-02-20T18:04:06.309Z,101559.78
2023-02-20T18:06:33.566Z,101564.63
2023-02-20T18:09:00.454Z,101558.81
2023-02-20T18:11:27.851Z,101544.00
2023-02-20T18:13:55.484Z,101557.47
2023-02-20T18:16:23.226Z,101561.72
2023-02-20T18:18:49.709Z,101558.97
2023-02-20T18:21:27.563Z,101570.66
2023-02-20T18:23:54.438Z,101576.72
2023-02-20T18:26:21.315Z,101561.56
2023-02-20T18:28:48.292Z,101530.53
2023-02-20T18:31:17.568Z,101553.88
2023-02-20T18:33:44.303Z,101559.53
2023-02-20T18:36:10.734Z,101534.25
2023-02-20T18:38:38.181Z,101558.69
2023-02-20T18:41:07.249Z,101543.19
2023-02-20T18:43:33.650Z,101570.81
2023-02-20T18:46:10.714Z,101558.13
2023-02-20T18:48:37.262Z,101557.88
2023-02-20T18:51:04.067Z,101558.56
2023-02-20T18:53:30.506Z,101558.28
2023-02-20T18:56:00.118Z,101534.41
2023-02-20T18:58:27.853Z,101476.16
2023-02-20T19:00:55.118Z,101486.59
2023-02-20T19:03:21.767Z,101503.75
2023-02-20T19:05:49.900Z,101561.03
2023-02-20T19:08:16.429Z,101542.63
2023-02-20T19:10:42.869Z,101548.41
2023-02-20T19:13:09.477Z,101534.09
2023-02-20T19:15:44.372Z,101557.19
2023-02-20T19:18:10.879Z,101446.91
2023-02-20T19:20:37.505Z,101535.50
2023-02-20T19:23:04.771Z,101532.03
2023-02-20T19:25:31.808Z,101384.44
2023-02-20T19:27:58.475Z,101470.94
2023-02-20T19:30:25.051Z,101454.47
2023-02-20T19:32:51.595Z,101533.00
2023-02-20T19:35:18.332Z,101499.91
2023-02-20T19:37:44.896Z,101534.78
2023-02-20T19:40:12.072Z,101542.34
2023-02-20T19:42:39.531Z,101470.25
2023-02-20T19:45:06.596Z,101526.97
2023-02-20T19:47:33.028Z,101504.97
2023-02-20T19:49:59.509Z,101510.19
2023-02-20T19:52:26.206Z,101399.81
2023-02-20T19:54:52.837Z,101479.19
2023-02-20T19:57:19.436Z,101467.50
2023-02-20T19:59:46.116Z,101380.88
2023-02-20T20:02:15.508Z,101499.63
2023-02-20T20:04:43.681Z,101514.88
2023-02-20T20:07:10.274Z,101493.19
2023-02-20T20:09:38.015Z,101502.53
2023-02-20T20:12:26.927Z,101526.28
2023-02-20T20:14:53.905Z,101520.78
2023-02-20T20:17:20.465Z,101515.84
2023-02-20T20:19:58.425Z,101496.63
2023-02-20T20:22:26.432Z,101502.81
2023-02-20T20:24:52.874Z,101499.38
2023-02-20T20:27:22.929Z,101521.06
2023-02-20T20:29:50.698Z,101515.97
2023-02-20T20:32:18.519Z,101528.75
2023-02-20T20:34:53.142Z,101504.59
2023-02-20T20:37:27.826Z,101515.13
2023-02-20T20:39:56.340Z,101511.84
2023-02-20T20:42:25.351Z,101515.69
2023-02-20T20:44:53.964Z,101514.22
2023-02-20T20:47:21.689Z,101519.69
2023-02-20T20:49:48.608Z,101523.41
2023-02-20T20:52:15.744Z,101437.44
2023-02-20T20:54:42.474Z,101503.88
2023-02-20T20:57:08.975Z,101494.13
2023-02-20T20:59:37.678Z,101492.50
2023-02-20T21:02:04.408Z,101493.31
2023-02-20T21:04:31.002Z,101458.56
2023-02-20T21:06:57.943Z,101491.38
2023-02-20T21:09:24.587Z,101500.84
2023-02-20T21:11:52.382Z,101469.28
2023-02-20T21:14:19.200Z,101486.44
2023-02-20T21:16:45.731Z,101507.44
2023-02-20T21:19:12.341Z,101516.81
2023-02-20T21:21:38.992Z,101481.38
2023-02-20T21:24:06.119Z,101501.41
2023-02-20T21:26:33.927Z,101492.06
2023-02-20T21:29:00.864Z,101496.19
2023-02-20T21:34:26.875Z,101377.03
2023-02-20T21:36:56.795Z,101454.34
2023-02-20T21:39:24.341Z,101451.03
2023-02-20T21:42:12.751Z,101454.44
2023-02-20T21:44:39.641Z,101441.28
2023-02-20T21:47:09.201Z,101483.69
2023-02-20T21:49:41.282Z,101480.53
2023-02-20T21:52:07.878Z,101486.03
2023-02-20T21:54:34.405Z,101470.91
2023-02-20T21:57:01.054Z,101483.00
2023-02-20T21:59:27.439Z,101474.75
2023-02-20T22:01:53.954Z,101426.31
2023-02-20T22:04:21.411Z,101468.84
2023-02-20T22:07:07.674Z,101468.59
2023-02-20T22:09:52.934Z,101481.63
2023-02-20T22:12:40.752Z,101473.09
2023-02-20T22:15:26.941Z,101433.31
2023-02-20T22:18:14.804Z,101372.91
2023-02-20T22:21:03.297Z,101479.16
2023-02-20T22:23:48.561Z,101475.06
2023-02-20T22:26:34.703Z,101485.19
2023-02-20T22:29:20.506Z,101483.84
2023-02-20T22:32:05.409Z,101471.88
2023-02-20T22:34:51.593Z,101477.50
2023-02-20T22:37:38.191Z,101485.88
2023-02-20T22:40:24.393Z,101491.25
2023-02-20T22:43:09.398Z,101465.97
2023-02-20T22:45:54.391Z,101483.13
2023-02-20T22:48:39.276Z,101492.34
2023-02-20T22:51:26.476Z,101482.56
2023-02-20T22:54:11.941Z,101500.03
2023-02-20T22:56:57.145Z,101496.06
2023-02-20T22:59:41.811Z,101502.94
2023-02-20T23:02:26.957Z,101499.47
2023-02-20T23:05:12.245Z,101480.66
2023-02-20T23:07:57.336Z,101503.06
2023-02-20T23:10:42.496Z,101489.59
2023-02-20T23:13:28.364Z,101498.25
2023-02-20T23:16:13.294Z,101488.22
2023-02-20T23:18:58.664Z,101478.06
2023-02-20T23:21:43.669Z,101484.63
2023-02-20T23:24:28.775Z,101477.50
2023-02-20T23:27:14.672Z,101487.38
2023-02-20T23:29:59.784Z,101480.50
2023-02-20T23:32:44.650Z,101462.13
2023-02-20T23:35:30.220Z,101453.88
2023-02-20T23:38:15.158Z,101477.88
2023-02-20T23:41:00.097Z,101497.00
2023-02-20T23:43:48.684Z,101485.22
2023-02-20T23:46:33.410Z,101501.66
2023-02-20T23:49:18.394Z,101464.31
2023-02-20T23:52:14.801Z,101477.22
2023-02-20T23:55:01.170Z,101470.63
2023-02-20T23:57:46.090Z,101486.03
